Time;durP1;ratioP1;P1;durP2;ratioP2;P2;SDS_P1;SDS_P2;PMS_P1;PMS_P2;Temp;Humidity;BMP_temperature;BMP_pressure;BME280_temperature;BME280_humidity;BME280_pressure;Samples;Min_cycle;Max_cycle;Signal;HPM_P1;HPM_P2
2021/12/19 00:00:45;;;;;;;10.10;5.53;;;4.30;99.90;;;4.08;100.00;98122.44;4986768;28;130443;-78
2021/12/19 00:03:33;;;;;;;10.10;6.32;;;4.30;99.90;;;4.04;100.00;98100.00;5003744;28;118962;-76
2021/12/19 00:08:50;;;;;;;11.10;6.50;;;4.30;99.90;;;4.07;100.00;98094.00;4987997;28;129903;-76
2021/12/19 00:11:22;;;;;;;12.27;6.72;;;4.30;99.90;;;4.00;100.00;98093.63;4986774;28;129859;-76
2021/12/19 00:13:51;;;;;;;11.68;6.53;;;4.30;99.90;;;3.99;100.00;98082.09;4987107;28;119255;-76
2021/12/19 00:16:22;;;;;;;12.55;6.63;;;4.30;99.90;;;3.98;100.00;98064.41;4983456;28;119477;-75
2021/12/19 00:18:52;;;;;;;11.60;6.93;;;4.30;99.90;;;4.02;100.00;98069.94;4970211;28;129797;-76
2021/12/19 00:21:24;;;;;;;12.77;6.63;;;4.30;99.90;;;4.03;100.00;98055.44;5003490;28;128895;-75
2021/12/19 00:23:56;;;;;;;11.52;6.43;;;4.20;99.90;;;4.02;100.00;98064.56;4983875;28;121711;-75
2021/12/19 00:26:26;;;;;;;11.25;6.53;;;4.20;99.90;;;4.07;100.00;98051.06;4984513;28;122545;-75
2021/12/19 00:28:54;;;;;;;12.90;6.90;;;4.20;99.90;;;4.04;100.00;98054.34;4986175;28;131352;-75
2021/12/19 00:31:25;;;;;;;12.18;6.43;;;4.20;99.90;;;4.00;100.00;98042.63;4985216;28;130822;-75
2021/12/19 00:33:54;;;;;;;13.93;6.78;;;4.20;99.90;;;4.04;100.00;98035.56;4985089;28;119847;-75
2021/12/19 00:36:23;;;;;;;12.88;7.15;;;4.20;99.90;;;4.06;100.00;98027.97;4984884;28;119702;-75
2021/12/19 00:38:52;;;;;;;11.95;7.00;;;4.20;99.90;;;3.98;100.00;98020.66;4985411;28;129803;-75
2021/12/19 00:41:22;;;;;;;15.20;7.45;;;4.20;99.90;;;4.05;100.00;98016.47;4984851;28;130226;-75
2021/12/19 00:43:55;;;;;;;12.63;7.28;;;4.20;99.90;;;4.09;100.00;98014.75;4983269;28;120727;-75
2021/12/19 00:46:27;;;;;;;10.88;6.93;;;4.20;99.90;;;4.10;100.00;98013.66;4984658;28;119544;-75
2021/12/19 00:48:56;;;;;;;13.32;7.65;;;4.20;99.90;;;4.02;100.00;98000.97;4984877;28;129264;-75
2021/12/19 00:51:28;;;;;;;11.30;6.57;;;4.20;99.90;;;4.03;100.00;98001.75;4984471;28;129614;-75
2021/12/19 00:53:57;;;;;;;12.18;6.35;;;4.20;99.90;;;4.02;100.00;98005.53;4987618;28;119699;-75
2021/12/19 00:56:26;;;;;;;12.23;6.53;;;4.20;99.90;;;4.08;100.00;97988.19;4984464;28;119727;-76
2021/12/19 00:58:55;;;;;;;11.85;7.20;;;4.20;99.90;;;4.05;100.00;97972.69;4983964;28;130237;-76
2021/12/19 01:01:25;;;;;;;10.80;6.25;;;4.20;99.90;;;4.03;100.00;97974.91;4983438;28;129908;-75
2021/12/19 01:03:54;;;;;;;11.52;6.55;;;4.20;99.90;;;4.01;100.00;97950.25;4985873;28;119681;-75
2021/12/19 01:06:22;;;;;;;11.65;6.72;;;4.20;99.90;;;3.99;100.00;97941.69;4983827;28;119647;-74
2021/12/19 01:08:51;;;;;;;11.52;6.18;;;4.20;99.90;;;3.93;100.00;97923.03;4983054;28;130131;-74
2021/12/19 01:11:20;;;;;;;12.70;7.00;;;4.20;99.90;;;3.95;100.00;97910.09;4983923;28;129966;-75
2021/12/19 01:13:49;;;;;;;11.75;6.03;;;4.20;99.90;;;3.91;100.00;97893.03;4984864;28;122247;-73
2021/12/19 01:16:19;;;;;;;9.82;5.88;;;4.20;99.90;;;3.89;100.00;97910.53;4984464;28;122487;-76
2021/12/19 01:18:49;;;;;;;10.45;6.07;;;4.20;99.90;;;3.84;100.00;97881.94;4984134;28;130374;-74
2021/12/19 01:21:18;;;;;;;8.13;4.93;;;4.20;99.90;;;3.90;100.00;97886.09;4983940;28;129750;-74
2021/12/19 01:23:46;;;;;;;9.95;5.63;;;4.20;99.90;;;3.86;100.00;97897.75;4969242;28;118645;-74
2021/12/19 01:26:15;;;;;;;9.80;5.85;;;4.20;99.90;;;3.86;100.00;97873.59;4983244;28;119349;-74
2021/12/19 01:28:45;;;;;;;12.02;6.75;;;4.20;99.90;;;3.89;100.00;97862.22;4983699;28;129948;-74
2021/12/19 01:31:14;;;;;;;9.85;6.05;;;4.20;99.90;;;3.94;100.00;97870.97;4986581;28;129882;-75
2021/12/19 01:33:43;;;;;;;10.63;6.38;;;4.10;99.90;;;3.87;100.00;97859.84;4983834;28;119675;-74
2021/12/19 01:36:13;;;;;;;11.05;5.88;;;4.10;99.90;;;3.83;100.00;97855.41;4984691;28;120034;-75
2021/12/19 01:38:43;;;;;;;10.27;5.63;;;4.10;99.90;;;3.76;100.00;97853.16;4983807;28;130005;-74
2021/12/19 01:41:12;;;;;;;9.57;5.90;;;4.10;99.90;;;3.80;100.00;97829.97;4985327;28;129711;-74
2021/12/19 01:43:41;;;;;;;10.68;5.30;;;4.10;99.90;;;3.86;100.00;97820.69;4986556;28;119274;-74
2021/12/19 01:46:09;;;;;;;9.75;5.70;;;4.10;99.90;;;3.77;100.00;97822.53;4983406;28;119344;-74
2021/12/19 01:48:38;;;;;;;13.02;6.22;;;4.10;99.90;;;3.84;100.00;97817.53;4984238;28;130926;-74
2021/12/19 01:51:13;;;;;;;10.18;5.70;;;4.10;99.90;;;3.74;100.00;97821.28;4983580;28;129921;-75
2021/12/19 01:53:43;;;;;;;9.27;5.45;;;4.10;99.90;;;3.80;100.00;97803.13;4985465;28;119670;-75
2021/12/19 01:56:11;;;;;;;9.52;5.13;;;4.10;99.90;;;3.85;100.00;97794.16;4983813;28;119646;-75
2021/12/19 01:58:40;;;;;;;8.35;4.90;;;4.10;99.90;;;3.78;100.00;97791.94;4983115;28;129685;-75
2021/12/19 02:01:08;;;;;;;8.93;4.50;;;4.10;99.90;;;3.81;100.00;97788.63;4984179;28;130372;-75
2021/12/19 02:03:37;;;;;;;8.95;5.18;;;4.20;99.90;;;3.84;100.00;97784.53;4983864;28;122192;-75
2021/12/19 02:06:06;;;;;;;8.40;5.38;;;4.20;99.90;;;3.88;100.00;97774.75;4983252;28;121834;-74
2021/12/19 02:08:37;;;;;;;9.57;4.82;;;4.20;99.90;;;3.94;100.00;97768.97;4983044;28;130951;-74
2021/12/19 02:11:05;;;;;;;8.60;4.88;;;4.20;99.90;;;4.04;100.00;97748.31;4983002;28;130640;-75
2021/12/19 02:13:38;;;;;;;8.43;5.07;;;4.20;99.90;;;4.09;100.00;97748.16;4983523;28;120369;-75
2021/12/19 02:16:06;;;;;;;9.65;4.70;;;4.20;99.90;;;4.07;100.00;97739.63;4983441;28;120278;-75
2021/12/19 02:18:35;;;;;;;7.00;4.15;;;4.20;99.90;;;4.09;100.00;97737.44;4982980;28;129974;-74
2021/12/19 02:21:05;;;;;;;8.30;4.65;;;4.30;99.90;;;4.11;100.00;97744.06;4983201;28;129974;-74
2021/12/19 02:23:34;;;;;;;7.90;4.40;;;4.30;99.90;;;4.12;100.00;97737.59;4983122;28;119863;-74
2021/12/19 02:26:02;;;;;;;7.90;4.97;;;4.30;99.90;;;4.13;100.00;97727.66;4984212;28;118285;-75
2021/12/19 02:28:31;;;;;;;8.55;4.82;;;4.30;99.90;;;4.22;100.00;97715.00;4983064;28;130371;-74
2021/12/19 02:31:00;;;;;;;6.93;4.10;;;4.30;99.90;;;4.21;100.00;97713.44;4982648;28;129594;-74
2021/12/19 02:33:34;;;;;;;7.50;4.57;;;4.30;99.90;;;4.10;100.00;97725.59;4984024;28;119808;-75
2021/12/19 02:36:20;;;;;;;8.13;4.47;;;4.40;99.90;;;4.21;100.00;97707.31;4985984;28;119518;-75
2021/12/19 02:49:53;;;;;;;7.85;5.00;;;4.30;99.90;;;4.11;100.00;97686.88;5005170;28;129327;-76
2021/12/19 02:52:23;;;;;;;8.38;5.03;;;4.30;99.90;;;4.12;100.00;97686.56;4989224;28;129774;-73
2021/12/19 02:54:52;;;;;;;9.55;4.22;;;4.40;99.90;;;4.14;100.00;97686.25;4985203;28;122432;-74
2021/12/19 02:57:20;;;;;;;7.57;4.32;;;4.40;99.90;;;4.10;100.00;97690.69;4986191;28;123004;-74
2021/12/19 02:59:49;;;;;;;7.55;4.45;;;4.30;99.90;;;4.07;100.00;97712.78;4985976;28;130392;-75
2021/12/19 03:02:20;;;;;;;8.95;5.22;;;4.30;99.90;;;4.04;100.00;97690.03;4987737;28;129908;-74
2021/12/19 03:04:55;;;;;;;7.93;4.55;;;4.40;99.90;;;3.99;100.00;97694.75;4987421;28;119690;-74
2021/12/19 03:07:26;;;;;;;9.27;4.95;;;4.30;99.90;;;4.03;100.00;97684.97;4985888;28;119951;-75
2021/12/19 03:10:11;;;;;;;8.77;5.43;;;4.30;99.90;;;3.98;100.00;97655.63;4985816;28;129891;-74
2021/12/19 03:12:55;;;;;;;9.23;5.32;;;4.30;99.90;;;3.91;100.00;97667.59;4988228;28;129905;-75
2021/12/19 03:18:14;;;;;;;11.88;5.97;;;4.20;99.90;;;3.81;100.00;97673.25;4986353;28;119516;-74
2021/12/19 03:20:47;;;;;;;9.88;5.75;;;4.10;99.90;;;3.79;100.00;97637.88;4984488;28;129748;-75
2021/12/19 03:23:17;;;;;;;13.10;6.10;;;4.10;99.90;;;3.76;100.00;97633.16;4987829;28;129730;-75
2021/12/19 03:25:46;;;;;;;12.15;6.05;;;4.00;99.90;;;3.73;100.00;97623.81;4985750;28;120068;-75
2021/12/19 03:28:15;;;;;;;10.82;5.55;;;4.00;99.90;;;3.70;100.00;97634.38;4985985;28;119764;-75
2021/12/19 03:30:47;;;;;;;11.52;5.75;;;4.00;99.90;;;3.63;100.00;97626.00;4985509;28;129977;-75
2021/12/19 03:33:17;;;;;;;10.32;5.10;;;4.00;99.90;;;3.61;100.00;97620.94;4985539;28;129893;-76
2021/12/19 03:35:46;;;;;;;8.57;4.40;;;3.90;99.90;;;3.60;100.00;97617.47;4988216;28;119681;-75
2021/12/19 03:38:17;;;;;;;7.60;4.45;;;3.90;99.90;;;3.57;100.00;97615.41;4986238;28;119620;-77
2021/12/19 03:40:52;;;;;;;7.90;4.15;;;3.90;99.90;;;3.57;100.00;97626.16;4985627;28;129755;-75
2021/12/19 03:43:24;;;;;;;8.95;3.85;;;3.90;99.90;;;3.53;100.00;97603.72;4985302;28;129715;-74
2021/12/19 03:45:53;;;;;;;7.38;4.07;;;3.90;99.90;;;3.53;100.00;97613.66;4984077;28;123269;-75
2021/12/19 03:48:21;;;;;;;6.95;3.92;;;3.90;99.90;;;3.54;100.00;97597.25;4986974;28;120231;-75
2021/12/19 03:50:51;;;;;;;8.85;4.20;;;3.90;99.90;;;3.56;100.00;97597.72;4969134;28;128983;-74
2021/12/19 03:53:22;;;;;;;6.85;3.38;;;3.90;99.90;;;3.54;100.00;97597.25;4985713;28;129992;-73
2021/12/19 03:55:52;;;;;;;8.23;3.92;;;3.80;99.90;;;3.52;100.00;97583.38;4986738;28;119737;-74
2021/12/19 03:58:22;;;;;;;6.57;3.33;;;3.80;99.90;;;3.46;100.00;97571.22;4985283;28;119428;-74
2021/12/19 04:01:07;;;;;;;6.57;3.15;;;3.80;99.90;;;3.48;100.00;97569.00;4985076;28;129945;-75
2021/12/19 04:03:36;;;;;;;7.63;3.55;;;3.80;99.90;;;3.44;100.00;97524.34;4985370;28;130045;-74
2021/12/19 04:06:05;;;;;;;5.22;2.88;;;3.80;99.90;;;3.43;100.00;97545.03;5003742;28;119294;-75
2021/12/19 04:08:38;;;;;;;6.60;2.83;;;3.70;99.90;;;3.46;100.00;97533.66;4985373;28;119862;-74
2021/12/19 04:11:06;;;;;;;5.03;2.50;;;3.70;99.90;;;3.46;100.00;97539.03;4985368;28;130290;-74
2021/12/19 04:13:36;;;;;;;4.20;2.47;;;3.70;99.90;;;3.45;100.00;97524.03;4984483;28;129646;-74
2021/12/19 04:16:05;;;;;;;4.32;2.22;;;3.70;99.90;;;3.45;100.00;97510.63;4984068;28;119443;-73
2021/12/19 04:18:33;;;;;;;4.75;2.20;;;3.70;99.90;;;3.51;100.00;97530.06;4984895;28;119420;-74
2021/12/19 04:21:02;;;;;;;3.78;1.65;;;3.70;99.90;;;3.45;100.00;97499.91;4986009;28;129743;-75
2021/12/19 04:23:31;;;;;;;3.78;1.92;;;3.70;99.90;;;3.44;100.00;97509.03;4986417;28;129626;-75
2021/12/19 04:26:01;;;;;;;4.28;1.88;;;3.70;99.90;;;3.46;100.00;97496.13;4984841;28;120061;-74
2021/12/19 04:28:30;;;;;;;3.25;1.90;;;3.80;99.90;;;3.41;100.00;97488.22;4988297;28;120064;-75
2021/12/19 04:31:00;;;;;;;3.50;1.90;;;3.80;99.90;;;3.48;100.00;97504.63;4984535;28;130153;-74
2021/12/19 04:33:30;;;;;;;3.85;1.80;;;3.90;99.90;;;3.55;100.00;97499.63;4985663;28;129949;-74
2021/12/19 04:36:01;;;;;;;2.67;1.77;;;3.80;99.90;;;3.51;100.00;97509.38;4983530;28;121961;-73
2021/12/19 04:39:03;;;;;;;3.00;1.58;;;3.90;99.90;;;3.43;100.00;97507.47;5000063;28;121730;-74
2021/12/19 04:53:02;;;;;;;3.30;1.35;;;3.70;99.90;;;3.28;100.00;97506.00;4965665;28;130003;-75
2021/12/19 05:01:17;;;;;;;3.00;1.63;;;3.40;99.90;;;3.14;100.00;97473.97;4987101;28;119565;-75
2021/12/19 05:03:50;;;;;;;2.97;1.67;;;3.40;99.90;;;3.05;100.00;97449.84;4983189;28;130009;-75
2021/12/19 05:06:34;;;;;;;2.55;1.52;;;3.30;99.90;;;3.04;100.00;97483.09;4984412;28;129869;-75
2021/12/19 05:14:44;;;;;;;4.20;1.40;;;3.30;99.90;;;2.91;100.00;97456.41;4984399;28;129801;-75
2021/12/19 05:17:19;;;;;;;2.67;1.42;;;3.20;99.90;;;2.85;100.00;97437.81;4984135;28;129791;-75
2021/12/19 05:19:53;;;;;;;2.38;1.30;;;3.20;99.90;;;2.90;100.00;97430.72;4984469;28;119865;-75
2021/12/19 05:22:26;;;;;;;2.67;1.40;;;3.20;99.90;;;2.82;100.00;97446.47;4984962;28;119208;-75
2021/12/19 05:25:07;;;;;;;3.05;1.38;;;3.10;99.90;;;2.85;100.00;97435.13;4984023;28;130153;-75
2021/12/19 05:27:36;;;;;;;3.35;1.70;;;3.10;99.90;;;2.76;100.00;97437.00;4985048;28;129221;-74
2021/12/19 05:30:08;;;;;;;1.65;1.08;;;3.10;99.90;;;2.77;100.00;97427.06;4968065;28;121176;-75
2021/12/19 05:32:37;;;;;;;3.33;1.20;;;3.00;99.90;;;2.82;100.00;97430.41;4986547;28;121782;-75
2021/12/19 05:35:08;;;;;;;1.73;1.10;;;3.00;99.90;;;2.77;100.00;97427.06;4985214;28;130290;-74
2021/12/19 05:45:57;;;;;;;1.88;0.90;;;3.00;99.90;;;2.78;100.00;97397.28;4983582;28;130593;-75
2021/12/19 05:48:26;;;;;;;1.40;1.00;;;3.00;99.90;;;2.76;100.00;97387.97;4983515;28;129526;-75
2021/12/19 05:50:55;;;;;;;0.93;0.80;;;3.00;99.90;;;2.84;100.00;97374.59;4983409;28;119725;-74
2021/12/19 05:53:23;;;;;;;1.08;0.93;;;3.00;99.90;;;2.86;100.00;97360.91;4985694;28;119492;-76
2021/12/19 05:55:52;;;;;;;1.30;0.98;;;3.00;99.90;;;2.87;100.00;97362.47;4982544;28;130458;-75
2021/12/19 05:58:20;;;;;;;0.90;0.90;;;3.00;99.90;;;2.76;100.00;97358.50;4984263;28;130366;-76
2021/12/19 06:00:49;;;;;;;1.60;1.02;;;3.00;99.90;;;2.80;100.00;97362.94;4984759;28;120238;-75
2021/12/19 06:03:19;;;;;;;1.33;0.88;;;3.00;99.90;;;2.83;100.00;97382.94;4983639;28;119997;-75
2021/12/19 06:05:47;;;;;;;1.63;1.10;;;3.00;99.90;;;2.87;100.00;97373.97;4982193;28;130229;-75
2021/12/19 06:08:17;;;;;;;2.55;1.10;;;3.00;99.90;;;2.85;100.00;97359.31;5000812;28;128901;-75
2021/12/19 06:10:45;;;;;;;2.05;1.08;;;3.00;99.90;;;2.81;100.00;97377.91;4985515;28;118879;-75
2021/12/19 06:13:14;;;;;;;3.13;1.20;;;3.00;99.90;;;2.81;100.00;97380.59;4985838;28;118658;-74
2021/12/19 06:15:44;;;;;;;2.83;1.25;;;3.00;99.90;;;2.88;100.00;97386.28;4986899;28;130062;-76
2021/12/19 06:18:12;;;;;;;3.95;1.48;;;3.00;99.90;;;2.80;100.00;97399.66;5004912;28;128797;-75
2021/12/19 06:20:42;;;;;;;3.83;1.40;;;3.00;99.90;;;2.86;100.00;97388.47;5000791;28;121926;-76
2021/12/19 06:23:12;;;;;;;2.40;1.10;;;3.00;99.90;;;2.86;100.00;97388.47;4988690;28;120915;-76
2021/12/19 06:25:45;;;;;;;1.65;1.10;;;3.00;99.90;;;2.88;100.00;97386.28;4986454;28;129928;-75
2021/12/19 06:28:14;;;;;;;2.08;1.20;;;3.00;99.90;;;2.86;100.00;97399.19;4966574;28;130357;-74
2021/12/19 06:30:43;;;;;;;2.60;1.20;;;3.00;99.90;;;2.85;100.00;97365.47;4966614;28;120172;-74
2021/12/19 06:33:12;;;;;;;1.27;1.08;;;3.10;99.90;;;2.91;100.00;97410.88;4967967;28;118546;-74
2021/12/19 06:35:42;;;;;;;1.25;0.95;;;3.20;99.90;;;2.91;100.00;97389.44;4967628;28;128768;-74
2021/12/19 06:38:12;;;;;;;1.40;1.10;;;3.20;99.90;;;2.92;100.00;97396.38;4967027;28;129332;-73
2021/12/19 06:40:41;;;;;;;2.08;1.20;;;3.10;99.90;;;3.01;100.00;97389.94;4967787;28;118256;-74
2021/12/19 06:43:10;;;;;;;2.33;1.13;;;3.10;99.90;;;2.97;100.00;97394.31;4968371;28;119084;-73
2021/12/19 06:45:40;;;;;;;3.60;1.75;;;3.10;99.90;;;2.95;100.00;97385.03;4966699;28;128964;-73
2021/12/19 06:48:09;;;;;;;3.05;1.40;;;3.10;99.90;;;2.91;100.00;97373.34;4967826;28;128568;-74
2021/12/19 06:50:38;;;;;;;2.55;1.30;;;3.10;99.90;;;2.99;100.00;97369.88;4984230;28;118605;-74
2021/12/19 06:53:08;;;;;;;1.75;1.10;;;3.10;99.90;;;2.93;100.00;97374.63;4984446;28;118301;-73
2021/12/19 06:55:37;;;;;;;2.33;1.30;;;3.10;99.90;;;2.99;100.00;97381.41;4968102;28;130035;-74
2021/12/19 06:58:05;;;;;;;3.17;1.70;;;3.10;99.90;;;2.97;100.00;97372.88;4984580;28;129278;-74
2021/12/19 07:00:35;;;;;;;2.28;1.20;;;3.10;99.90;;;2.92;100.00;97365.00;4968909;28;119427;-74
2021/12/19 07:03:04;;;;;;;2.10;1.02;;;3.10;99.90;;;2.98;100.00;97357.63;4968251;28;119108;-74
2021/12/19 07:05:33;;;;;;;2.78;1.50;;;3.10;99.90;;;2.99;100.00;97369.88;4964401;28;130121;-75
2021/12/19 07:08:01;;;;;;;3.42;1.70;;;3.10;99.90;;;2.92;100.00;97370.38;4967123;28;130223;-73
2021/12/19 07:10:32;;;;;;;4.78;2.22;;;3.10;99.90;;;2.90;100.00;97374.44;4965022;28;122171;-77
2021/12/19 07:13:01;;;;;;;6.45;2.42;;;3.10;99.90;;;2.94;100.00;97367.38;4966186;28;121795;-76
2021/12/19 07:15:30;;;;;;;3.83;1.77;;;3.10;99.90;;;2.95;100.00;97368.97;4966043;28;129911;-77
2021/12/19 07:18:02;;;;;;;3.55;1.90;;;3.10;99.90;;;2.99;100.00;97356.50;4965061;28;129945;-76
2021/12/19 07:20:31;;;;;;;10.50;3.88;;;3.10;99.90;;;2.91;100.00;97363.41;4966273;28;119998;-76
2021/12/19 07:23:00;;;;;;;5.60;2.78;;;3.10;99.90;;;2.95;100.00;97353.66;4968225;28;118242;-75
2021/12/19 07:25:31;;;;;;;3.65;1.92;;;3.10;99.90;;;2.92;100.00;97359.66;4967817;28;130056;-76
2021/12/19 07:28:00;;;;;;;4.07;1.30;;;3.10;99.90;;;2.94;100.00;97345.94;5002163;28;129645;-75
2021/12/19 07:30:30;;;;;;;4.68;2.33;;;3.10;99.90;;;3.01;100.00;97346.28;4985305;28;120188;-77
2021/12/19 07:33:00;;;;;;;4.32;2.15;;;3.00;99.90;;;3.08;100.00;97354.63;4986611;28;119490;-76
2021/12/19 07:35:30;;;;;;;4.03;2.00;;;3.00;99.90;;;3.06;100.00;97333.47;4984620;28;129771;-77
2021/12/19 07:37:59;;;;;;;6.60;3.15;;;3.10;99.90;;;2.98;100.00;97344.22;4985645;28;130348;-76
2021/12/19 07:40:35;;;;;;;7.90;3.22;;;3.00;99.90;;;3.06;100.00;97338.84;4986093;28;120092;-76
2021/12/19 07:43:08;;;;;;;4.27;2.57;;;3.10;99.90;;;3.09;100.00;97326.72;4986181;28;120128;-76
2021/12/19 07:45:36;;;;;;;3.60;2.00;;;3.10;99.90;;;3.09;100.00;97325.94;4985538;28;130503;-76
2021/12/19 07:48:06;;;;;;;5.25;2.08;;;3.10;99.90;;;3.14;100.00;97326.56;4987891;28;129669;-76
2021/12/19 07:50:35;;;;;;;10.25;3.72;;;3.10;99.90;;;3.11;100.00;97329.88;4985677;28;119674;-76
2021/12/19 07:53:04;;;;;;;5.88;3.13;;;3.20;99.90;;;3.28;100.00;97325.63;4986290;28;119703;-76
2021/12/19 07:55:33;;;;;;;4.78;2.63;;;3.20;99.90;;;3.06;100.00;97322.75;4985456;28;130094;-74
2021/12/19 07:58:02;;;;;;;4.47;2.10;;;3.20;99.90;;;2.76;100.00;97332.53;4985261;28;130034;-75
2021/12/19 08:00:32;;;;;;;3.35;1.90;;;3.10;99.90;;;2.51;100.00;97350.91;4984317;28;122016;-77
2021/12/19 08:03:02;;;;;;;4.30;2.20;;;2.80;99.90;;;2.14;100.00;97344.94;4987567;28;121075;-78
2021/12/19 08:05:30;;;;;;;5.88;2.92;;;2.60;99.90;;;1.99;100.00;97340.00;4985124;28;130103;-76
2021/12/19 08:08:03;;;;;;;4.95;2.17;;;2.60;99.90;;;1.95;100.00;97357.78;4985391;28;130401;-76
2021/12/19 08:13:19;;;;;;;2.67;1.80;;;2.50;99.90;;;2.00;100.00;97340.81;4985589;28;119423;-76
2021/12/19 08:15:48;;;;;;;3.95;1.70;;;2.60;99.90;;;2.02;100.00;97334.03;4985112;28;130057;-76
2021/12/19 08:18:17;;;;;;;2.97;1.30;;;2.60;99.90;;;1.95;100.00;97347.06;4986406;28;131372;-76
2021/12/19 08:20:46;;;;;;;1.75;1.08;;;2.60;99.90;;;1.78;100.00;97340.53;5001276;28;119790;-78
2021/12/19 08:23:16;;;;;;;2.75;1.13;;;2.40;99.90;;;1.84;100.00;97353.75;4987235;28;119742;-77
2021/12/19 08:25:44;;;;;;;7.00;3.03;;;2.40;99.90;;;1.92;100.00;97345.00;4986069;28;129801;-75
2021/12/19 08:28:14;;;;;;;4.90;2.10;;;2.40;99.90;;;1.77;100.00;97333.59;4985217;28;129346;-76
2021/12/19 08:30:42;;;;;;;4.68;2.00;;;2.40;99.90;;;1.84;100.00;97343.06;4986573;28;119952;-78
2021/12/19 08:33:13;;;;;;;4.40;2.17;;;2.40;99.90;;;2.15;100.00;97333.16;4985221;28;119384;-76
2021/12/19 08:49:07;;;;;;;6.00;2.78;;;2.60;99.90;;;2.37;100.00;97323.47;5069398;27;102438;-74
2021/12/19 08:51:39;;;;;;;8.25;4.00;;;2.50;99.90;;;2.36;100.00;97319.19;5042814;27;112845;-75
2021/12/19 08:54:09;;;;;;;5.22;2.40;;;2.50;99.90;;;2.31;100.00;97308.66;5040750;27;129854;-71
2021/12/19 08:56:38;;;;;;;7.22;3.42;;;2.50;99.90;;;2.46;100.00;97321.59;5041504;27;129724;-72
2021/12/19 08:59:07;;;;;;;9.35;4.38;;;2.50;99.90;;;2.78;100.00;97316.13;5042356;27;118893;-72
2021/12/19 09:01:36;;;;;;;5.95;2.65;;;2.60;99.90;;;2.82;100.00;97307.16;5042982;27;113675;-72
2021/12/19 09:04:06;;;;;;;5.88;3.00;;;2.70;99.90;;;2.90;100.00;97307.47;5042860;27;130151;-72
2021/12/19 09:06:35;;;;;;;4.30;2.13;;;2.70;99.90;;;2.87;100.00;97300.88;5041434;27;130490;-76
2021/12/19 09:09:06;;;;;;;4.13;1.85;;;2.80;99.90;;;2.80;100.00;97314.72;5041588;27;118892;-76
2021/12/19 09:11:35;;;;;;;3.17;1.55;;;2.80;99.90;;;2.79;100.00;97297.06;5041624;27;113563;-76
2021/12/19 09:14:05;;;;;;;3.08;1.48;;;2.70;99.90;;;2.76;100.00;97297.69;5041267;27;130196;-76
2021/12/19 09:16:33;;;;;;;3.20;1.50;;;2.70;99.90;;;2.92;100.00;97310.63;5042868;27;129739;-76
2021/12/19 09:19:02;;;;;;;2.55;1.60;;;2.80;99.90;;;2.78;100.00;97284.78;5040896;27;118687;-74
2021/12/19 09:21:32;;;;;;;4.32;2.10;;;2.70;99.90;;;2.77;100.00;97314.56;5024921;27;113771;-75
2021/12/19 09:24:06;;;;;;;3.83;2.00;;;2.70;99.90;;;2.72;100.00;97310.13;5040926;27;130296;-76
2021/12/19 09:26:35;;;;;;;2.92;1.20;;;2.60;99.90;;;2.66;100.00;97308.72;5041464;27;129914;-76
2021/12/19 09:29:04;;;;;;;2.92;1.58;;;2.50;99.90;;;2.63;100.00;97304.78;5041715;27;118881;-76
2021/12/19 09:31:33;;;;;;;3.92;1.95;;;2.50;99.90;;;2.60;100.00;97315.31;5042016;27;113762;-76
2021/12/19 09:34:03;;;;;;;4.50;2.13;;;2.50;99.90;;;2.78;100.00;97311.56;5043564;27;130063;-76
2021/12/19 09:36:34;;;;;;;3.65;1.65;;;2.50;99.90;;;2.53;100.00;97317.69;5042998;27;129721;-75
2021/12/19 09:39:03;;;;;;;3.40;1.65;;;2.50;99.90;;;2.79;100.00;97302.44;5043355;27;118958;-77
2021/12/19 09:41:36;;;;;;;3.22;1.58;;;2.50;99.90;;;2.63;100.00;97325.41;5040275;27;113450;-76
2021/12/19 09:44:09;;;;;;;4.13;1.83;;;2.50;99.90;;;2.78;100.00;97316.91;5040688;27;129975;-76
2021/12/19 09:46:39;;;;;;;4.25;1.70;;;2.50;99.90;;;2.58;100.00;97304.13;5040138;27;130685;-76
2021/12/19 09:49:12;;;;;;;2.83;1.30;;;2.50;99.90;;;2.34;100.00;97316.06;5032906;27;118898;-71
2021/12/19 09:51:44;;;;;;;2.10;1.30;;;2.40;99.90;;;2.51;100.00;97308.06;5026210;28;113575;-70
2021/12/19 09:54:14;;;;;;;1.73;1.00;;;2.50;99.90;;;2.26;100.00;97300.72;5028557;28;130150;-70
2021/12/19 09:56:43;;;;;;;4.38;1.75;;;2.60;99.90;;;2.85;100.00;97301.19;5026255;28;130212;-70
2021/12/19 09:59:15;;;;;;;4.40;1.70;;;2.70;99.90;;;2.82;100.00;97322.44;5026855;28;118635;-71
2021/12/19 10:01:44;;;;;;;4.60;2.25;;;2.70;99.90;;;2.34;100.00;97318.72;5026015;28;113945;-69
2021/12/19 10:04:35;;;;;;;2.78;1.23;;;2.50;99.90;;;2.44;100.00;97305.03;5027772;28;129759;-70
2021/12/19 10:07:10;;;;;;;4.32;1.85;;;2.40;99.90;;;2.36;100.00;97288.97;5026186;28;129837;-69
2021/12/19 10:09:43;;;;;;;3.38;1.58;;;2.30;99.90;;;2.60;100.00;97304.59;5025649;28;119046;-71
2021/12/19 10:15:13;;;;;;;2.72;1.10;;;2.40;99.90;;;2.77;98.74;97304.63;5006993;27;130358;-69
2021/12/19 10:17:42;;;;;;;3.42;1.52;;;2.30;99.90;;;2.51;100.00;97324.13;5025010;28;130287;-70
2021/12/19 10:20:14;;;;;;;3.35;1.70;;;2.30;99.90;;;2.11;100.00;97313.44;5024505;27;119028;-69
2021/12/19 10:22:46;;;;;;;6.25;2.35;;;2.20;99.90;;;2.06;100.00;97305.56;5009176;27;113520;-69
2021/12/19 10:25:22;;;;;;;5.57;2.60;;;2.20;99.90;;;2.22;100.00;97299.78;5006624;28;130492;-70
2021/12/19 10:27:53;;;;;;;5.43;2.45;;;2.30;99.90;;;2.37;100.00;97296.69;5021924;27;129835;-69
2021/12/19 10:30:26;;;;;;;8.57;4.35;;;2.30;99.90;;;2.68;100.00;97290.44;5006814;27;119672;-69
2021/12/19 10:33:00;;;;;;;5.70;2.90;;;2.40;99.90;;;2.65;100.00;97301.75;5003443;28;113796;-71
2021/12/19 10:35:33;;;;;;;2.95;1.63;;;2.40;99.90;;;2.42;99.02;97306.47;5005199;27;129760;-70
2021/12/19 10:38:05;;;;;;;3.92;1.80;;;2.30;99.90;;;2.23;98.10;97306.72;5007337;27;129848;-71
2021/12/19 10:40:34;;;;;;;2.03;1.30;;;2.30;99.90;;;2.19;98.32;97306.53;5025070;27;119027;-71
2021/12/19 10:43:05;;;;;;;3.85;1.65;;;2.20;98.30;;;2.13;98.20;97297.84;5023835;28;114340;-71
2021/12/19 10:45:43;;;;;;;3.83;1.60;;;2.20;99.90;;;1.96;97.11;97298.59;5020863;27;129867;-71
2021/12/19 10:48:32;;;;;;;3.05;1.60;;;2.10;99.90;;;1.71;96.64;97296.59;5005825;28;130018;-71
2021/12/19 10:51:05;;;;;;;5.57;1.83;;;2.10;88.70;;;1.79;97.26;97310.00;5004708;28;119833;-71
2021/12/19 10:53:39;;;;;;;5.95;2.38;;;2.00;95.70;;;1.77;98.80;97296.13;5006235;28;113959;-71
2021/12/19 10:56:13;;;;;;;3.60;2.03;;;2.00;99.60;;;1.98;97.35;97300.97;5003700;28;129698;-71
2021/12/19 10:58:45;;;;;;;3.67;1.67;;;1.90;99.00;;;1.73;97.39;97326.47;5004467;28;130163;-71
2021/12/19 11:01:19;;;;;;;2.28;1.23;;;2.00;94.50;;;1.87;97.31;97299.66;5003544;28;118683;-71
2021/12/19 11:04:04;;;;;;;4.85;1.77;;;2.10;97.70;;;1.86;94.54;97309.56;5004991;28;114042;-71
2021/12/19 11:06:38;;;;;;;7.07;1.95;;;2.00;90.60;;;1.73;94.50;97300.53;5004303;28;130314;-70
2021/12/19 11:09:13;;;;;;;5.55;1.90;;;2.10;90.20;;;1.76;95.50;97310.63;5004217;28;129989;-71
2021/12/19 11:11:56;;;;;;;3.88;1.63;;;2.10;80.20;;;1.61;96.65;97303.00;5004685;28;118923;-72
2021/12/19 11:14:28;;;;;;;6.18;2.53;;;2.00;86.10;;;1.62;96.62;97309.91;5005770;28;112549;-70
2021/12/19 11:17:00;;;;;;;4.43;1.88;;;2.00;88.10;;;1.73;95.34;97300.53;5006517;28;130255;-70
2021/12/19 11:19:29;;;;;;;4.20;1.70;;;2.00;90.70;;;1.84;94.94;97290.38;5007244;28;129831;-71
2021/12/19 11:21:58;;;;;;;5.03;2.08;;;2.00;82.10;;;1.59;96.16;97294.47;5007581;28;119570;-71
2021/12/19 11:24:29;;;;;;;4.05;1.80;;;2.00;85.40;;;1.70;96.04;97317.19;5005794;28;113966;-72
2021/12/19 11:27:01;;;;;;;11.25;3.22;;;2.00;92.00;;;1.77;96.47;97285.44;5005846;28;130161;-70
2021/12/19 11:29:30;;;;;;;3.40;1.40;;;1.90;91.70;;;1.68;96.00;97291.84;5003478;28;129866;-71
2021/12/19 11:32:06;;;;;;;6.68;3.05;;;1.90;93.00;;;2.14;95.78;97287.97;5004066;28;118806;-70
2021/12/19 11:34:58;;;;;;;5.20;1.90;;;2.00;96.00;;;1.72;96.73;97290.94;5020625;27;113562;-70
2021/12/19 11:37:31;;;;;;;4.55;2.15;;;2.00;94.00;;;2.09;97.40;97290.78;5024555;27;129796;-70
2021/12/19 11:40:02;;;;;;;4.93;1.98;;;2.10;98.10;;;2.10;96.87;97287.00;5026121;28;129797;-71